sensor_id;sensor_type;location;lat;lon;timestamp;P1;durP1;ratioP1;P2;durP2;ratioP2
45887;SDS011;31595;51.418;7.572;2023-03-01T00:01:40;15.90;;;10.05;;
45887;SDS011;31595;51.418;7.572;2023-03-01T00:04:07;20.42;;;12.50;;
45887;SDS011;31595;51.418;7.572;2023-03-01T00:06:35;17.45;;;11.77;;
45887;SDS011;31595;51.418;7.572;2023-03-01T00:09:03;21.83;;;13.88;;
45887;SDS011;31595;51.418;7.572;2023-03-01T00:11:31;19.98;;;13.93;;
45887;SDS011;31595;51.418;7.572;2023-03-01T00:14:02;20.85;;;12.93;;
45887;SDS011;31595;51.418;7.572;2023-03-01T00:16:33;16.83;;;11.57;;
45887;SDS011;31595;51.418;7.572;2023-03-01T00:19:07;15.50;;;10.68;;
45887;SDS011;31595;51.418;7.572;2023-03-01T00:21:36;14.48;;;10.90;;
45887;SDS011;31595;51.418;7.572;2023-03-01T00:24:08;15.25;;;11.25;;
45887;SDS011;31595;51.418;7.572;2023-03-01T00:26:36;13.52;;;10.40;;
45887;SDS011;31595;51.418;7.572;2023-03-01T00:29:09;12.60;;;9.55;;
45887;SDS011;31595;51.418;7.572;2023-03-01T00:31:37;11.10;;;9.10;;
45887;SDS011;31595;51.418;7.572;2023-03-01T00:34:05;12.73;;;9.57;;
45887;SDS011;31595;51.418;7.572;2023-03-01T00:36:34;16.98;;;10.57;;
45887;SDS011;31595;51.418;7.572;2023-03-01T00:39:03;11.93;;;9.38;;
45887;SDS011;31595;51.418;7.572;2023-03-01T00:41:32;13.13;;;9.55;;
45887;SDS011;31595;51.418;7.572;2023-03-01T00:44:00;13.73;;;9.10;;
45887;SDS011;31595;51.418;7.572;2023-03-01T00:46:29;12.15;;;9.27;;
45887;SDS011;31595;51.418;7.572;2023-03-01T00:48:59;12.63;;;9.15;;
45887;SDS011;31595;51.418;7.572;2023-03-01T00:51:28;10.70;;;8.63;;
45887;SDS011;31595;51.418;7.572;2023-03-01T00:53:56;11.27;;;8.32;;
45887;SDS011;31595;51.418;7.572;2023-03-01T00:56:25;9.90;;;7.88;;
45887;SDS011;31595;51.418;7.572;2023-03-01T00:58:53;11.50;;;8.27;;
45887;SDS011;31595;51.418;7.572;2023-03-01T01:01:22;12.70;;;8.82;;
45887;SDS011;31595;51.418;7.572;2023-03-01T01:03:54;11.75;;;8.40;;
45887;SDS011;31595;51.418;7.572;2023-03-01T01:06:24;13.38;;;8.38;;
45887;SDS011;31595;51.418;7.572;2023-03-01T01:08:56;11.95;;;8.07;;
45887;SDS011;31595;51.418;7.572;2023-03-01T01:11:33;12.73;;;8.70;;
45887;SDS011;31595;51.418;7.572;2023-03-01T01:14:02;11.13;;;8.77;;
45887;SDS011;31595;51.418;7.572;2023-03-01T01:16:30;12.30;;;9.20;;
45887;SDS011;31595;51.418;7.572;2023-03-01T01:19:00;13.57;;;8.95;;
45887;SDS011;31595;51.418;7.572;2023-03-01T01:21:28;12.20;;;8.30;;
45887;SDS011;31595;51.418;7.572;2023-03-01T01:23:56;9.98;;;7.97;;
45887;SDS011;31595;51.418;7.572;2023-03-01T01:26:29;12.75;;;8.63;;
45887;SDS011;31595;51.418;7.572;2023-03-01T01:28:58;10.68;;;8.38;;
45887;SDS011;31595;51.418;7.572;2023-03-01T01:31:27;11.65;;;8.30;;
45887;SDS011;31595;51.418;7.572;2023-03-01T01:33:55;12.40;;;8.73;;
45887;SDS011;31595;51.418;7.572;2023-03-01T01:36:25;13.43;;;8.63;;
45887;SDS011;31595;51.418;7.572;2023-03-01T01:39:05;11.23;;;8.07;;
45887;SDS011;31595;51.418;7.572;2023-03-01T01:41:33;11.63;;;8.20;;
45887;SDS011;31595;51.418;7.572;2023-03-01T01:44:12;11.90;;;8.40;;
45887;SDS011;31595;51.418;7.572;2023-03-01T01:46:41;11.52;;;8.57;;
45887;SDS011;31595;51.418;7.572;2023-03-01T01:49:15;12.95;;;8.75;;
45887;SDS011;31595;51.418;7.572;2023-03-01T01:51:48;14.30;;;9.55;;
45887;SDS011;31595;51.418;7.572;2023-03-01T01:54:23;12.00;;;7.65;;
45887;SDS011;31595;51.418;7.572;2023-03-01T01:56:55;13.73;;;9.38;;
45887;SDS011;31595;51.418;7.572;2023-03-01T01:59:26;13.18;;;9.32;;
45887;SDS011;31595;51.418;7.572;2023-03-01T02:01:56;11.18;;;9.00;;
45887;SDS011;31595;51.418;7.572;2023-03-01T02:04:26;11.25;;;8.38;;
45887;SDS011;31595;51.418;7.572;2023-03-01T02:06:55;10.63;;;8.15;;
45887;SDS011;31595;51.418;7.572;2023-03-01T02:09:26;12.90;;;8.48;;
45887;SDS011;31595;51.418;7.572;2023-03-01T02:11:54;10.15;;;7.70;;
45887;SDS011;31595;51.418;7.572;2023-03-01T02:14:22;11.35;;;8.82;;
45887;SDS011;31595;51.418;7.572;2023-03-01T02:16:49;13.57;;;8.82;;
45887;SDS011;31595;51.418;7.572;2023-03-01T02:19:19;11.05;;;8.10;;
45887;SDS011;31595;51.418;7.572;2023-03-01T02:21:56;11.93;;;8.75;;
45887;SDS011;31595;51.418;7.572;2023-03-01T02:24:33;14.27;;;9.52;;
45887;SDS011;31595;51.418;7.572;2023-03-01T02:27:10;12.25;;;8.30;;
45887;SDS011;31595;51.418;7.572;2023-03-01T02:29:40;11.37;;;8.77;;
45887;SDS011;31595;51.418;7.572;2023-03-01T02:32:09;12.60;;;8.43;;
45887;SDS011;31595;51.418;7.572;2023-03-01T02:34:39;10.55;;;8.07;;
45887;SDS011;31595;51.418;7.572;2023-03-01T02:37:08;12.93;;;8.85;;
45887;SDS011;31595;51.418;7.572;2023-03-01T02:39:41;11.95;;;8.48;;
45887;SDS011;31595;51.418;7.572;2023-03-01T02:42:14;11.35;;;8.05;;
45887;SDS011;31595;51.418;7.572;2023-03-01T02:44:49;11.07;;;8.18;;
45887;SDS011;31595;51.418;7.572;2023-03-01T02:49:44;12.77;;;8.70;;
45887;SDS011;31595;51.418;7.572;2023-03-01T02:52:17;12.48;;;8.52;;
45887;SDS011;31595;51.418;7.572;2023-03-01T02:54:58;13.40;;;8.88;;
45887;SDS011;31595;51.418;7.572;2023-03-01T02:57:30;12.60;;;9.13;;
45887;SDS011;31595;51.418;7.572;2023-03-01T03:00:08;13.55;;;8.98;;
45887;SDS011;31595;51.418;7.572;2023-03-01T03:02:44;12.30;;;9.30;;
45887;SDS011;31595;51.418;7.572;2023-03-01T03:05:13;12.85;;;8.70;;
45887;SDS011;31595;51.418;7.572;2023-03-01T03:07:46;12.10;;;8.57;;
45887;SDS011;31595;51.418;7.572;2023-03-01T03:10:15;13.23;;;8.45;;
45887;SDS011;31595;51.418;7.572;2023-03-01T03:12:48;12.35;;;9.00;;
45887;SDS011;31595;51.418;7.572;2023-03-01T03:15:21;12.30;;;8.13;;
45887;SDS011;31595;51.418;7.572;2023-03-01T03:17:49;12.65;;;8.73;;
45887;SDS011;31595;51.418;7.572;2023-03-01T03:20:19;10.88;;;8.75;;
45887;SDS011;31595;51.418;7.572;2023-03-01T03:25:16;12.20;;;8.45;;
45887;SDS011;31595;51.418;7.572;2023-03-01T03:27:45;11.80;;;8.85;;
45887;SDS011;31595;51.418;7.572;2023-03-01T03:30:14;12.73;;;8.70;;
45887;SDS011;31595;51.418;7.572;2023-03-01T03:32:45;10.57;;;8.13;;
45887;SDS011;31595;51.418;7.572;2023-03-01T03:35:18;11.57;;;8.40;;
45887;SDS011;31595;51.418;7.572;2023-03-01T03:37:48;11.32;;;8.40;;
45887;SDS011;31595;51.418;7.572;2023-03-01T03:40:29;12.90;;;9.55;;
45887;SDS011;31595;51.418;7.572;2023-03-01T03:45:26;12.73;;;8.95;;
45887;SDS011;31595;51.418;7.572;2023-03-01T03:47:55;11.70;;;8.77;;
45887;SDS011;31595;51.418;7.572;2023-03-01T03:50:22;13.13;;;8.88;;
45887;SDS011;31595;51.418;7.572;2023-03-01T03:52:50;12.45;;;9.20;;
45887;SDS011;31595;51.418;7.572;2023-03-01T03:55:18;12.77;;;8.98;;
45887;SDS011;31595;51.418;7.572;2023-03-01T03:57:47;12.48;;;8.18;;
45887;SDS011;31595;51.418;7.572;2023-03-01T04:00:17;10.35;;;7.85;;
45887;SDS011;31595;51.418;7.572;2023-03-01T04:02:46;11.57;;;8.52;;
45887;SDS011;31595;51.418;7.572;2023-03-01T04:05:16;12.57;;;7.82;;
45887;SDS011;31595;51.418;7.572;2023-03-01T04:07:45;13.32;;;8.63;;
45887;SDS011;31595;51.418;7.572;2023-03-01T04:10:16;11.95;;;8.85;;
45887;SDS011;31595;51.418;7.572;2023-03-01T04:12:44;13.82;;;8.93;;
45887;SDS011;31595;51.418;7.572;2023-03-01T04:15:12;12.50;;;8.98;;
45887;SDS011;31595;51.418;7.572;2023-03-01T04:17:40;12.50;;;8.40;;
45887;SDS011;31595;51.418;7.572;2023-03-01T04:20:12;12.80;;;8.73;;
45887;SDS011;31595;51.418;7.572;2023-03-01T04:22:44;11.10;;;8.57;;
45887;SDS011;31595;51.418;7.572;2023-03-01T04:25:14;12.45;;;8.32;;
45887;SDS011;31595;51.418;7.572;2023-03-01T04:27:44;13.50;;;8.75;;
45887;SDS011;31595;51.418;7.572;2023-03-01T04:30:12;12.63;;;8.45;;
45887;SDS011;31595;51.418;7.572;2023-03-01T04:32:39;14.13;;;9.30;;
45887;SDS011;31595;51.418;7.572;2023-03-01T04:35:07;12.15;;;8.50;;
45887;SDS011;31595;51.418;7.572;2023-03-01T04:37:35;14.88;;;10.10;;
45887;SDS011;31595;51.418;7.572;2023-03-01T04:40:05;13.50;;;8.90;;
45887;SDS011;31595;51.418;7.572;2023-03-01T04:42:41;14.57;;;9.95;;
45887;SDS011;31595;51.418;7.572;2023-03-01T04:45:09;14.32;;;9.88;;
45887;SDS011;31595;51.418;7.572;2023-03-01T04:47:39;16.67;;;10.20;;
45887;SDS011;31595;51.418;7.572;2023-03-01T04:50:07;11.75;;;8.70;;
45887;SDS011;31595;51.418;7.572;2023-03-01T04:52:35;12.38;;;8.70;;
45887;SDS011;31595;51.418;7.572;2023-03-01T04:55:05;13.75;;;9.10;;
45887;SDS011;31595;51.418;7.572;2023-03-01T04:57:33;12.95;;;8.57;;
45887;SDS011;31595;51.418;7.572;2023-03-01T05:00:04;10.80;;;7.78;;
45887;SDS011;31595;51.418;7.572;2023-03-01T05:02:46;14.40;;;9.63;;
45887;SDS011;31595;51.418;7.572;2023-03-01T05:05:19;13.70;;;9.07;;
45887;SDS011;31595;51.418;7.572;2023-03-01T05:07:51;13.05;;;9.18;;
45887;SDS011;31595;51.418;7.572;2023-03-01T05:10:24;14.10;;;8.90;;
45887;SDS011;31595;51.418;7.572;2023-03-01T05:12:54;14.77;;;8.55;;
45887;SDS011;31595;51.418;7.572;2023-03-01T05:15:23;13.43;;;8.30;;
45887;SDS011;31595;51.418;7.572;2023-03-01T05:17:52;14.47;;;9.83;;
45887;SDS011;31595;51.418;7.572;2023-03-01T05:20:21;13.20;;;9.70;;
45887;SDS011;31595;51.418;7.572;2023-03-01T05:22:49;13.50;;;10.05;;
45887;SDS011;31595;51.418;7.572;2023-03-01T05:25:17;15.23;;;9.55;;
45887;SDS011;31595;51.418;7.572;2023-03-01T05:27:46;17.38;;;10.30;;
45887;SDS011;31595;51.418;7.572;2023-03-01T05:30:14;14.10;;;9.85;;
45887;SDS011;31595;51.418;7.572;2023-03-01T05:32:44;13.23;;;8.98;;
45887;SDS011;31595;51.418;7.572;2023-03-01T05:35:13;13.90;;;9.55;;
45887;SDS011;31595;51.418;7.572;2023-03-01T05:37:43;16.05;;;10.52;;
45887;SDS011;31595;51.418;7.572;2023-03-01T05:40:14;15.50;;;10.02;;
45887;SDS011;31595;51.418;7.572;2023-03-01T05:42:43;15.90;;;9.80;;
45887;SDS011;31595;51.418;7.572;2023-03-01T05:45:12;16.35;;;10.18;;
45887;SDS011;31595;51.418;7.572;2023-03-01T05:47:47;14.05;;;9.70;;
45887;SDS011;31595;51.418;7.572;2023-03-01T05:50:17;16.83;;;10.85;;
45887;SDS011;31595;51.418;7.572;2023-03-01T05:52:47;14.15;;;9.85;;
45887;SDS011;31595;51.418;7.572;2023-03-01T05:55:15;12.93;;;8.63;;
45887;SDS011;31595;51.418;7.572;2023-03-01T05:57:44;13.15;;;9.40;;
45887;SDS011;31595;51.418;7.572;2023-03-01T06:00:14;15.23;;;9.98;;
45887;SDS011;31595;51.418;7.572;2023-03-01T06:02:46;14.52;;;9.02;;
45887;SDS011;31595;51.418;7.572;2023-03-01T06:07:41;14.38;;;9.10;;
45887;SDS011;31595;51.418;7.572;2023-03-01T06:10:10;12.73;;;9.23;;
45887;SDS011;31595;51.418;7.572;2023-03-01T06:12:39;12.57;;;9.02;;
45887;SDS011;31595;51.418;7.572;2023-03-01T06:15:11;14.25;;;9.65;;
45887;SDS011;31595;51.418;7.572;2023-03-01T06:17:41;12.13;;;8.68;;
45887;SDS011;31595;51.418;7.572;2023-03-01T06:20:16;15.55;;;9.95;;
45887;SDS011;31595;51.418;7.572;2023-03-01T06:22:50;14.60;;;9.23;;
45887;SDS011;31595;51.418;7.572;2023-03-01T06:25:19;15.02;;;9.43;;
45887;SDS011;31595;51.418;7.572;2023-03-01T06:27:48;14.50;;;9.82;;
45887;SDS011;31595;51.418;7.572;2023-03-01T06:30:18;12.18;;;8.30;;
45887;SDS011;31595;51.418;7.572;2023-03-01T06:32:51;11.73;;;8.57;;
45887;SDS011;31595;51.418;7.572;2023-03-01T06:35:26;12.37;;;8.67;;
45887;SDS011;31595;51.418;7.572;2023-03-01T06:37:56;13.68;;;9.65;;
45887;SDS011;31595;51.418;7.572;2023-03-01T06:40:25;15.55;;;9.18;;
45887;SDS011;31595;51.418;7.572;2023-03-01T06:42:57;13.35;;;9.07;;
45887;SDS011;31595;51.418;7.572;2023-03-01T06:45:27;14.05;;;9.65;;
45887;SDS011;31595;51.418;7.572;2023-03-01T06:48:06;13.07;;;9.50;;
45887;SDS011;31595;51.418;7.572;2023-03-01T06:50:34;15.15;;;10.65;;
45887;SDS011;31595;51.418;7.572;2023-03-01T06:53:11;20.92;;;12.23;;
45887;SDS011;31595;51.418;7.572;2023-03-01T06:55:40;17.20;;;10.80;;
45887;SDS011;31595;51.418;7.572;2023-03-01T06:58:08;12.05;;;9.02;;
45887;SDS011;31595;51.418;7.572;2023-03-01T07:00:36;9.88;;;7.95;;
45887;SDS011;31595;51.418;7.572;2023-03-01T07:03:15;12.45;;;7.97;;
45887;SDS011;31595;51.418;7.572;2023-03-01T07:05:42;11.93;;;7.88;;
45887;SDS011;31595;51.418;7.572;2023-03-01T07:08:11;11.00;;;8.27;;
45887;SDS011;31595;51.418;7.572;2023-03-01T07:10:42;12.02;;;8.88;;
45887;SDS011;31595;51.418;7.572;2023-03-01T07:13:13;11.02;;;8.25;;
45887;SDS011;31595;51.418;7.572;2023-03-01T07:15:43;10.82;;;8.65;;
45887;SDS011;31595;51.418;7.572;2023-03-01T07:18:12;12.05;;;9.35;;
45887;SDS011;31595;51.418;7.572;2023-03-01T07:20:42;11.20;;;8.77;;
45887;SDS011;31595;51.418;7.572;2023-03-01T07:23:10;10.85;;;8.77;;
45887;SDS011;31595;51.418;7.572;2023-03-01T07:25:37;10.02;;;8.65;;
45887;SDS011;31595;51.418;7.572;2023-03-01T07:28:29;11.63;;;9.88;;
45887;SDS011;31595;51.418;7.572;2023-03-01T07:31:07;12.05;;;10.00;;
45887;SDS011;31595;51.418;7.572;2023-03-01T07:33:55;15.15;;;11.15;;
45887;SDS011;31595;51.418;7.572;2023-03-01T07:36:24;17.63;;;13.75;;
45887;SDS011;31595;51.418;7.572;2023-03-01T07:38:58;15.63;;;11.75;;
45887;SDS011;31595;51.418;7.572;2023-03-01T07:41:28;14.98;;;12.43;;
45887;SDS011;31595;51.418;7.572;2023-03-01T07:44:04;17.77;;;13.40;;
45887;SDS011;31595;51.418;7.572;2023-03-01T07:46:47;18.33;;;15.00;;
45887;SDS011;31595;51.418;7.572;2023-03-01T07:49:16;18.15;;;15.45;;
45887;SDS011;31595;51.418;7.572;2023-03-01T07:51:44;18.35;;;16.45;;
45887;SDS011;31595;51.418;7.572;2023-03-01T07:54:11;18.73;;;16.73;;
45887;SDS011;31595;51.418;7.572;2023-03-01T07:56:39;15.75;;;13.02;;
45887;SDS011;31595;51.418;7.572;2023-03-01T07:59:07;14.18;;;10.77;;
45887;SDS011;31595;51.418;7.572;2023-03-01T08:01:35;9.75;;;8.30;;
45887;SDS011;31595;51.418;7.572;2023-03-01T08:04:05;9.23;;;8.32;;
45887;SDS011;31595;51.418;7.572;2023-03-01T08:06:35;9.13;;;8.10;;
45887;SDS011;31595;51.418;7.572;2023-03-01T08:09:03;9.50;;;8.48;;
45887;SDS011;31595;51.418;7.572;2023-03-01T08:11:34;9.98;;;8.13;;
45887;SDS011;31595;51.418;7.572;2023-03-01T08:14:07;9.27;;;8.02;;
45887;SDS011;31595;51.418;7.572;2023-03-01T08:16:36;10.30;;;8.27;;
45887;SDS011;31595;51.418;7.572;2023-03-01T08:19:04;11.60;;;8.93;;
45887;SDS011;31595;51.418;7.572;2023-03-01T08:21:37;10.23;;;9.23;;
45887;SDS011;31595;51.418;7.572;2023-03-01T08:24:05;11.25;;;8.80;;
45887;SDS011;31595;51.418;7.572;2023-03-01T08:26:35;10.95;;;9.73;;
45887;SDS011;31595;51.418;7.572;2023-03-01T08:29:06;11.13;;;9.25;;
45887;SDS011;31595;51.418;7.572;2023-03-01T08:31:35;11.07;;;9.07;;
45887;SDS011;31595;51.418;7.572;2023-03-01T08:34:05;10.05;;;8.25;;
45887;SDS011;31595;51.418;7.572;2023-03-01T08:36:37;10.13;;;8.52;;
45887;SDS011;31595;51.418;7.572;2023-03-01T08:39:06;9.20;;;8.25;;
45887;SDS011;31595;51.418;7.572;2023-03-01T08:41:34;7.90;;;7.20;;
45887;SDS011;31595;51.418;7.572;2023-03-01T08:44:07;9.48;;;8.30;;
45887;SDS011;31595;51.418;7.572;2023-03-01T08:46:35;8.48;;;7.38;;
45887;SDS011;31595;51.418;7.572;2023-03-01T08:49:10;8.95;;;7.63;;
45887;SDS011;31595;51.418;7.572;2023-03-01T08:51:41;13.02;;;7.57;;
45887;SDS011;31595;51.418;7.572;2023-03-01T08:54:10;7.75;;;7.05;;
45887;SDS011;31595;51.418;7.572;2023-03-01T08:56:40;9.40;;;7.97;;
45887;SDS011;31595;51.418;7.572;2023-03-01T08:59:09;8.00;;;6.93;;
45887;SDS011;31595;51.418;7.572;2023-03-01T09:01:37;7.60;;;6.85;;
45887;SDS011;31595;51.418;7.572;2023-03-01T09:04:05;7.43;;;5.95;;
45887;SDS011;31595;51.418;7.572;2023-03-01T09:06:44;7.40;;;6.75;;
45887;SDS011;31595;51.418;7.572;2023-03-01T09:09:13;7.43;;;6.72;;
45887;SDS011;31595;51.418;7.572;2023-03-01T09:11:41;7.53;;;6.40;;
45887;SDS011;31595;51.418;7.572;2023-03-01T09:14:11;7.25;;;6.40;;
45887;SDS011;31595;51.418;7.572;2023-03-01T09:16:39;6.20;;;5.60;;
45887;SDS011;31595;51.418;7.572;2023-03-01T09:19:34;6.32;;;5.72;;
45887;SDS011;31595;51.418;7.572;2023-03-01T09:22:03;6.40;;;5.80;;
45887;SDS011;31595;51.418;7.572;2023-03-01T09:27:07;5.72;;;5.00;;
45887;SDS011;31595;51.418;7.572;2023-03-01T09:29:36;5.38;;;4.88;;
45887;SDS011;31595;51.418;7.572;2023-03-01T09:32:04;5.63;;;4.43;;
45887;SDS011;31595;51.418;7.572;2023-03-01T09:34:46;5.90;;;4.90;;
45887;SDS011;31595;51.418;7.572;2023-03-01T09:40:42;5.78;;;5.10;;
45887;SDS011;31595;51.418;7.572;2023-03-01T09:43:40;4.88;;;4.40;;
45887;SDS011;31595;51.418;7.572;2023-03-01T09:46:13;5.35;;;4.85;;
45887;SDS011;31595;51.418;7.572;2023-03-01T09:48:43;5.93;;;4.57;;
45887;SDS011;31595;51.418;7.572;2023-03-01T09:51:17;5.47;;;4.55;;
45887;SDS011;31595;51.418;7.572;2023-03-01T09:53:47;5.10;;;4.50;;
45887;SDS011;31595;51.418;7.572;2023-03-01T09:56:17;5.88;;;4.70;;
45887;SDS011;31595;51.418;7.572;2023-03-01T09:58:50;6.70;;;4.97;;
45887;SDS011;31595;51.418;7.572;2023-03-01T10:01:32;5.68;;;5.10;;
45887;SDS011;31595;51.418;7.572;2023-03-01T10:04:25;5.68;;;4.78;;
45887;SDS011;31595;51.418;7.572;2023-03-01T10:13:25;5.35;;;4.85;;
45887;SDS011;31595;51.418;7.572;2023-03-01T10:16:01;5.95;;;5.35;;
45887;SDS011;31595;51.418;7.572;2023-03-01T10:18:36;5.35;;;4.82;;
45887;SDS011;31595;51.418;7.572;2023-03-01T10:21:09;5.68;;;4.72;;
45887;SDS011;31595;51.418;7.572;2023-03-01T10:23:46;5.55;;;5.05;;
45887;SDS011;31595;51.418;7.572;2023-03-01T10:29:16;6.13;;;5.30;;
45887;SDS011;31595;51.418;7.572;2023-03-01T10:31:48;6.30;;;5.18;;
45887;SDS011;31595;51.418;7.572;2023-03-01T10:34:26;5.00;;;4.25;;
45887;SDS011;31595;51.418;7.572;2023-03-01T10:37:11;5.22;;;4.55;;
45887;SDS011;31595;51.418;7.572;2023-03-01T10:39:54;5.85;;;4.68;;
45887;SDS011;31595;51.418;7.572;2023-03-01T10:42:25;5.90;;;5.20;;
45887;SDS011;31595;51.418;7.572;2023-03-01T10:44:59;5.45;;;4.95;;
45887;SDS011;31595;51.418;7.572;2023-03-01T10:47:43;5.35;;;4.85;;
45887;SDS011;31595;51.418;7.572;2023-03-01T10:50:24;5.03;;;4.50;;
45887;SDS011;31595;51.418;7.572;2023-03-01T10:52:55;5.57;;;5.07;;
45887;SDS011;31595;51.418;7.572;2023-03-01T10:55:27;5.72;;;5.07;;
45887;SDS011;31595;51.418;7.572;2023-03-01T10:58:09;6.05;;;5.45;;
45887;SDS011;31595;51.418;7.572;2023-03-01T11:01:06;7.43;;;5.20;;
45887;SDS011;31595;51.418;7.572;2023-03-01T11:04:03;5.32;;;4.85;;
45887;SDS011;31595;51.418;7.572;2023-03-01T11:06:57;8.65;;;5.15;;
45887;SDS011;31595;51.418;7.572;2023-03-01T11:09:34;6.03;;;5.53;;
45887;SDS011;31595;51.418;7.572;2023-03-01T11:12:04;5.80;;;5.20;;
45887;SDS011;31595;51.418;7.572;2023-03-01T11:14:45;7.32;;;4.85;;
45887;SDS011;31595;51.418;7.572;2023-03-01T11:17:21;5.45;;;4.93;;
45887;SDS011;31595;51.418;7.572;2023-03-01T11:20:01;6.57;;;5.30;;
45887;SDS011;31595;51.418;7.572;2023-03-01T11:22:33;5.57;;;5.07;;
45887;SDS011;31595;51.418;7.572;2023-03-01T11:25:14;6.85;;;5.22;;
45887;SDS011;31595;51.418;7.572;2023-03-01T11:27:44;7.30;;;4.75;;
45887;SDS011;31595;51.418;7.572;2023-03-01T11:30:18;5.53;;;5.03;;
45887;SDS011;31595;51.418;7.572;2023-03-01T11:32:55;6.63;;;5.72;;
45887;SDS011;31595;51.418;7.572;2023-03-01T11:35:30;5.88;;;5.38;;
45887;SDS011;31595;51.418;7.572;2023-03-01T11:38:04;5.68;;;4.80;;
45887;SDS011;31595;51.418;7.572;2023-03-01T11:40:50;7.05;;;5.40;;
45887;SDS011;31595;51.418;7.572;2023-03-01T11:43:26;5.78;;;4.70;;
45887;SDS011;31595;51.418;7.572;2023-03-01T11:46:13;6.18;;;5.35;;
45887;SDS011;31595;51.418;7.572;2023-03-01T11:49:14;7.25;;;5.05;;
45887;SDS011;31595;51.418;7.572;2023-03-01T11:52:04;8.23;;;5.43;;
45887;SDS011;31595;51.418;7.572;2023-03-01T11:54:43;6.38;;;5.43;;
45887;SDS011;31595;51.418;7.572;2023-03-01T11:57:30;5.93;;;5.22;;
45887;SDS011;31595;51.418;7.572;2023-03-01T12:01:45;5.88;;;5.38;;
45887;SDS011;31595;51.418;7.572;2023-03-01T12:03:41;6.45;;;5.50;;
45887;SDS011;31595;51.418;7.572;2023-03-01T12:07:01;6.68;;;5.45;;
45887;SDS011;31595;51.418;7.572;2023-03-01T12:09:47;7.35;;;5.40;;
45887;SDS011;31595;51.418;7.572;2023-03-01T12:12:36;5.70;;;4.97;;
45887;SDS011;31595;51.418;7.572;2023-03-01T12:15:44;5.85;;;5.15;;
45887;SDS011;31595;51.418;7.572;2023-03-01T12:18:25;6.55;;;5.72;;
45887;SDS011;31595;51.418;7.572;2023-03-01T12:21:14;6.75;;;5.20;;
45887;SDS011;31595;51.418;7.572;2023-03-01T12:27:16;6.20;;;5.50;;
45887;SDS011;31595;51.418;7.572;2023-03-01T12:29:59;6.07;;;5.50;;
45887;SDS011;31595;51.418;7.572;2023-03-01T12:32:47;6.18;;;5.57;;
45887;SDS011;31595;51.418;7.572;2023-03-01T12:35:40;6.45;;;5.63;;
45887;SDS011;31595;51.418;7.572;2023-03-01T12:38:26;6.50;;;5.47;;
45887;SDS011;31595;51.418;7.572;2023-03-01T12:41:25;7.22;;;5.85;;
45887;SDS011;31595;51.418;7.572;2023-03-01T12:47:14;6.20;;;5.60;;
45887;SDS011;31595;51.418;7.572;2023-03-01T12:49:54;6.97;;;5.85;;
45887;SDS011;31595;51.418;7.572;2023-03-01T12:52:28;6.85;;;5.95;;
45887;SDS011;31595;51.418;7.572;2023-03-01T12:55:16;6.57;;;5.93;;
45887;SDS011;31595;51.418;7.572;2023-03-01T12:57:53;6.97;;;6.28;;
45887;SDS011;31595;51.418;7.572;2023-03-01T13:03:23;8.48;;;6.22;;
45887;SDS011;31595;51.418;7.572;2023-03-01T13:06:07;7.68;;;6.88;;
45887;SDS011;31595;51.418;7.572;2023-03-01T13:08:39;7.85;;;6.63;;
45887;SDS011;31595;51.418;7.572;2023-03-01T13:11:12;7.40;;;6.30;;
45887;SDS011;31595;51.418;7.572;2023-03-01T13:14:01;7.18;;;6.50;;
45887;SDS011;31595;51.418;7.572;2023-03-01T13:17:20;6.72;;;6.10;;
45887;SDS011;31595;51.418;7.572;2023-03-01T13:20:15;6.82;;;5.75;;
45887;SDS011;31595;51.418;7.572;2023-03-01T13:26:00;5.72;;;5.22;;
45887;SDS011;31595;51.418;7.572;2023-03-01T13:28:49;5.57;;;5.00;;
45887;SDS011;31595;51.418;7.572;2023-03-01T13:37:29;5.65;;;5.00;;
45887;SDS011;31595;51.418;7.572;2023-03-01T13:39:59;5.32;;;4.82;;
45887;SDS011;31595;51.418;7.572;2023-03-01T13:42:45;6.03;;;5.43;;
45887;SDS011;31595;51.418;7.572;2023-03-01T13:45:21;5.90;;;5.30;;
45887;SDS011;31595;51.418;7.572;2023-03-01T13:48:00;6.88;;;5.70;;
45887;SDS011;31595;51.418;7.572;2023-03-01T13:50:36;5.35;;;4.65;;
45887;SDS011;31595;51.418;7.572;2023-03-01T14:05:13;5.65;;;4.90;;
45887;SDS011;31595;51.418;7.572;2023-03-01T14:08:00;6.05;;;5.10;;
45887;SDS011;31595;51.418;7.572;2023-03-01T14:11:00;6.10;;;5.00;;
45887;SDS011;31595;51.418;7.572;2023-03-01T14:16:24;5.72;;;4.93;;
45887;SDS011;31595;51.418;7.572;2023-03-01T14:19:26;6.80;;;5.47;;
45887;SDS011;31595;51.418;7.572;2023-03-01T14:22:04;5.63;;;4.85;;
45887;SDS011;31595;51.418;7.572;2023-03-01T14:24:44;5.85;;;5.25;;
45887;SDS011;31595;51.418;7.572;2023-03-01T14:27:17;6.20;;;5.07;;
45887;SDS011;31595;51.418;7.572;2023-03-01T14:32:52;7.03;;;5.18;;
45887;SDS011;31595;51.418;7.572;2023-03-01T14:37:48;5.88;;;4.63;;
45887;SDS011;31595;51.418;7.572;2023-03-01T14:40:26;6.03;;;5.15;;
45887;SDS011;31595;51.418;7.572;2023-03-01T14:42:57;6.13;;;5.35;;
45887;SDS011;31595;51.418;7.572;2023-03-01T14:45:27;7.38;;;5.10;;
45887;SDS011;31595;51.418;7.572;2023-03-01T14:47:58;6.78;;;5.60;;
45887;SDS011;31595;51.418;7.572;2023-03-01T14:50:28;7.50;;;6.57;;
45887;SDS011;31595;51.418;7.572;2023-03-01T14:55:29;9.68;;;7.22;;
45887;SDS011;31595;51.418;7.572;2023-03-01T14:58:02;6.07;;;5.38;;
45887;SDS011;31595;51.418;7.572;2023-03-01T15:00:30;7.25;;;5.40;;
45887;SDS011;31595;51.418;7.572;2023-03-01T15:03:19;6.38;;;5.35;;
45887;SDS011;31595;51.418;7.572;2023-03-01T15:05:54;8.88;;;6.97;;
45887;SDS011;31595;51.418;7.572;2023-03-01T15:08:25;7.90;;;6.18;;
45887;SDS011;31595;51.418;7.572;2023-03-01T15:11:19;5.88;;;4.65;;
45887;SDS011;31595;51.418;7.572;2023-03-01T15:14:26;6.90;;;5.82;;
45887;SDS011;31595;51.418;7.572;2023-03-01T15:17:21;7.60;;;5.97;;
45887;SDS011;31595;51.418;7.572;2023-03-01T15:19:54;7.43;;;5.47;;
45887;SDS011;31595;51.418;7.572;2023-03-01T15:22:22;8.07;;;5.43;;
45887;SDS011;31595;51.418;7.572;2023-03-01T15:24:52;5.72;;;4.93;;
45887;SDS011;31595;51.418;7.572;2023-03-01T15:27:39;6.80;;;5.60;;
45887;SDS011;31595;51.418;7.572;2023-03-01T15:30:17;6.70;;;5.07;;
45887;SDS011;31595;51.418;7.572;2023-03-01T15:32:47;6.30;;;5.10;;
45887;SDS011;31595;51.418;7.572;2023-03-01T15:35:38;6.93;;;5.38;;
45887;SDS011;31595;51.418;7.572;2023-03-01T15:40:52;7.25;;;5.32;;
45887;SDS011;31595;51.418;7.572;2023-03-01T15:43:40;6.88;;;5.07;;
45887;SDS011;31595;51.418;7.572;2023-03-01T15:49:03;6.85;;;5.10;;
45887;SDS011;31595;51.418;7.572;2023-03-01T15:51:46;7.43;;;5.72;;
45887;SDS011;31595;51.418;7.572;2023-03-01T15:54:17;6.35;;;5.32;;
45887;SDS011;31595;51.418;7.572;2023-03-01T15:56:46;7.63;;;5.63;;
45887;SDS011;31595;51.418;7.572;2023-03-01T15:59:16;6.03;;;5.03;;
45887;SDS011;31595;51.418;7.572;2023-03-01T16:01:48;6.25;;;4.90;;
45887;SDS011;31595;51.418;7.572;2023-03-01T16:04:25;6.90;;;5.47;;
45887;SDS011;31595;51.418;7.572;2023-03-01T16:06:53;7.15;;;5.38;;
45887;SDS011;31595;51.418;7.572;2023-03-01T16:09:21;7.75;;;5.70;;
45887;SDS011;31595;51.418;7.572;2023-03-01T16:11:53;6.70;;;5.07;;
45887;SDS011;31595;51.418;7.572;2023-03-01T16:14:22;7.30;;;5.43;;
45887;SDS011;31595;51.418;7.572;2023-03-01T16:16:50;7.20;;;5.72;;
45887;SDS011;31595;51.418;7.572;2023-03-01T16:19:17;9.43;;;5.05;;
45887;SDS011;31595;51.418;7.572;2023-03-01T16:21:48;5.20;;;4.63;;
45887;SDS011;31595;51.418;7.572;2023-03-01T16:24:16;6.60;;;4.82;;
45887;SDS011;31595;51.418;7.572;2023-03-01T16:26:44;7.30;;;5.45;;
45887;SDS011;31595;51.418;7.572;2023-03-01T16:29:22;6.88;;;5.30;;
45887;SDS011;31595;51.418;7.572;2023-03-01T16:32:26;7.88;;;5.38;;